sensor_id;sensor_type;location;lat;lon;timestamp;pressure;altitude;pressure_sealevel;temperature;humidity
75668;BME280;64266;48.798;44.756;2024-03-02T00:01:39;103069.31;;;1.25;57.78
75668;BME280;64266;48.798;44.756;2024-03-02T00:06:42;103067.97;;;1.19;58.75
75668;BME280;64266;48.798;44.756;2024-03-02T00:11:46;103068.25;;;1.15;59.90
75668;BME280;64266;48.798;44.756;2024-03-02T00:16:49;103061.56;;;1.11;58.58
75668;BME280;64266;48.798;44.756;2024-03-02T00:21:52;103054.22;;;1.03;59.15
75668;BME280;64266;48.798;44.756;2024-03-02T00:26:55;103063.72;;;1.04;58.83
75668;BME280;64266;48.798;44.756;2024-03-02T00:32:00;103050.88;;;1.01;58.08
75668;BME280;64266;48.798;44.756;2024-03-02T00:37:04;103079.78;;;1.25;59.52
75668;BME280;64266;48.798;44.756;2024-03-02T00:42:06;103070.25;;;1.24;57.47
75668;BME280;64266;48.798;44.756;2024-03-02T00:47:11;103069.47;;;1.09;57.61
75668;BME280;64266;48.798;44.756;2024-03-02T00:52:14;102983.78;;;0.48;57.92
75668;BME280;64266;48.798;44.756;2024-03-02T00:57:17;103038.63;;;0.75;56.92
75668;BME280;64266;48.798;44.756;2024-03-02T01:02:21;103063.09;;;1.00;57.07
75668;BME280;64266;48.798;44.756;2024-03-02T01:07:24;103032.94;;;0.82;56.38
75668;BME280;64266;48.798;44.756;2024-03-02T01:12:27;103073.47;;;0.88;55.52
75668;BME280;64266;48.798;44.756;2024-03-02T01:17:30;103087.31;;;0.76;56.24
75668;BME280;64266;48.798;44.756;2024-03-02T01:22:33;103085.53;;;0.62;55.85
75668;BME280;64266;48.798;44.756;2024-03-02T01:27:38;103085.94;;;0.56;55.66
75668;BME280;64266;48.798;44.756;2024-03-02T01:32:41;103068.53;;;0.42;56.86
75668;BME280;64266;48.798;44.756;2024-03-02T01:37:44;103104.31;;;0.54;56.14
75668;BME280;64266;48.798;44.756;2024-03-02T01:42:47;103089.78;;;0.36;55.44
75668;BME280;64266;48.798;44.756;2024-03-02T01:47:50;103043.56;;;-0.04;56.30
75668;BME280;64266;48.798;44.756;2024-03-02T01:52:58;103102.91;;;0.35;55.53
75668;BME280;64266;48.798;44.756;2024-03-02T01:58:02;103097.06;;;0.17;56.77
75668;BME280;64266;48.798;44.756;2024-03-02T02:03:05;103065.81;;;0.02;56.47
75668;BME280;64266;48.798;44.756;2024-03-02T02:08:09;103055.47;;;-0.14;56.13
75668;BME280;64266;48.798;44.756;2024-03-02T02:13:12;103060.88;;;-0.03;56.08
75668;BME280;64266;48.798;44.756;2024-03-02T02:18:15;103086.81;;;0.14;55.65
75668;BME280;64266;48.798;44.756;2024-03-02T02:23:19;103078.41;;;0.09;55.88
75668;BME280;64266;48.798;44.756;2024-03-02T02:28:24;103056.97;;;-0.10;55.04
75668;BME280;64266;48.798;44.756;2024-03-02T02:33:27;103041.00;;;-0.34;55.85
75668;BME280;64266;48.798;44.756;2024-03-02T02:38:32;103068.69;;;-0.17;56.41
75668;BME280;64266;48.798;44.756;2024-03-02T02:43:36;103089.56;;;-0.03;56.90
75668;BME280;64266;48.798;44.756;2024-03-02T02:48:39;103090.03;;;-0.11;56.56
75668;BME280;64266;48.798;44.756;2024-03-02T02:53:42;103072.16;;;-0.17;56.39
75668;BME280;64266;48.798;44.756;2024-03-02T02:58:45;103065.34;;;-0.19;56.91
75668;BME280;64266;48.798;44.756;2024-03-02T03:03:47;103077.97;;;-0.27;56.13
75668;BME280;64266;48.798;44.756;2024-03-02T03:08:50;103077.97;;;-0.27;57.04
75668;BME280;64266;48.798;44.756;2024-03-02T03:13:54;103099.69;;;-0.27;56.44
75668;BME280;64266;48.798;44.756;2024-03-02T03:18:58;103071.94;;;-0.58;56.50
75668;BME280;64266;48.798;44.756;2024-03-02T03:24:01;103046.78;;;-0.73;56.50
75668;BME280;64266;48.798;44.756;2024-03-02T03:29:06;103089.16;;;-0.55;57.45
75668;BME280;64266;48.798;44.756;2024-03-02T03:34:09;103086.50;;;-0.53;56.55
75668;BME280;64266;48.798;44.756;2024-03-02T03:39:12;103031.38;;;-0.91;57.65
75668;BME280;64266;48.798;44.756;2024-03-02T03:44:15;103087.22;;;-0.51;58.32
75668;BME280;64266;48.798;44.756;2024-03-02T03:49:18;103091.13;;;-0.59;57.26
75668;BME280;64266;48.798;44.756;2024-03-02T03:54:21;103083.25;;;-0.73;57.42
75668;BME280;64266;48.798;44.756;2024-03-02T03:59:24;103087.63;;;-0.73;57.62
75668;BME280;64266;48.798;44.756;2024-03-02T04:04:27;103093.56;;;-0.56;57.93
75668;BME280;64266;48.798;44.756;2024-03-02T04:09:29;103100.56;;;-0.42;57.43
75668;BME280;64266;48.798;44.756;2024-03-02T04:14:32;103096.19;;;-0.41;57.30
75668;BME280;64266;48.798;44.756;2024-03-02T04:19:35;103070.84;;;-0.53;57.52
75668;BME280;64266;48.798;44.756;2024-03-02T04:24:38;103109.66;;;-0.19;55.75
75668;BME280;64266;48.798;44.756;2024-03-02T04:29:41;103076.63;;;-0.48;57.10
75668;BME280;64266;48.798;44.756;2024-03-02T04:34:45;103088.03;;;-0.21;56.44
75668;BME280;64266;48.798;44.756;2024-03-02T04:39:48;103109.31;;;0.01;56.67
75668;BME280;64266;48.798;44.756;2024-03-02T04:44:51;103100.22;;;0.22;55.68
75668;BME280;64266;48.798;44.756;2024-03-02T04:49:55;103086.53;;;0.33;54.84
75668;BME280;64266;48.798;44.756;2024-03-02T04:54:58;103077.22;;;0.43;54.22
75668;BME280;64266;48.798;44.756;2024-03-02T05:00:30;103072.91;;;0.42;54.70
75668;BME280;64266;48.798;44.756;2024-03-02T05:05:33;103071.31;;;0.53;54.66
75668;BME280;64266;48.798;44.756;2024-03-02T05:10:37;103107.88;;;0.94;53.79
75668;BME280;64266;48.798;44.756;2024-03-02T05:15:40;103106.84;;;0.97;54.31
75668;BME280;64266;48.798;44.756;2024-03-02T05:20:43;103114.22;;;0.90;53.70
75668;BME280;64266;48.798;44.756;2024-03-02T05:25:46;103125.28;;;1.08;52.71
75668;BME280;64266;48.798;44.756;2024-03-02T05:30:50;103106.41;;;1.17;52.95
75668;BME280;64266;48.798;44.756;2024-03-02T05:35:53;103135.72;;;1.61;52.24
75668;BME280;64266;48.798;44.756;2024-03-02T05:40:56;103100.44;;;1.94;52.01
75668;BME280;64266;48.798;44.756;2024-03-02T05:45:59;103121.03;;;2.49;50.63
75668;BME280;64266;48.798;44.756;2024-03-02T05:51:02;103110.59;;;3.09;49.16
75668;BME280;64266;48.798;44.756;2024-03-02T05:56:06;103093.06;;;3.33;47.82
75668;BME280;64266;48.798;44.756;2024-03-02T06:01:09;103108.81;;;4.03;46.08
75668;BME280;64266;48.798;44.756;2024-03-02T06:06:12;103121.31;;;4.77;45.57
75668;BME280;64266;48.798;44.756;2024-03-02T06:11:15;103086.72;;;5.46;44.75
75668;BME280;64266;48.798;44.756;2024-03-02T06:16:18;103115.50;;;6.51;42.88
75668;BME280;64266;48.798;44.756;2024-03-02T06:21:41;103047.00;;;6.80;41.83
75668;BME280;64266;48.798;44.756;2024-03-02T06:26:44;103119.97;;;7.39;39.44
75668;BME280;64266;48.798;44.756;2024-03-02T06:31:48;103132.50;;;7.56;39.96
75668;BME280;64266;48.798;44.756;2024-03-02T06:36:56;103099.81;;;7.67;39.60
75668;BME280;64266;48.798;44.756;2024-03-02T06:42:00;103118.28;;;7.86;39.09
75668;BME280;64266;48.798;44.756;2024-03-02T06:47:03;103123.53;;;8.14;38.96
75668;BME280;64266;48.798;44.756;2024-03-02T06:52:07;103122.34;;;7.80;39.35
75668;BME280;64266;48.798;44.756;2024-03-02T06:57:10;103126.53;;;7.35;40.76
75668;BME280;64266;48.798;44.756;2024-03-02T07:02:14;103121.88;;;6.89;42.32
75668;BME280;64266;48.798;44.756;2024-03-02T07:07:17;103117.78;;;6.75;44.04
75668;BME280;64266;48.798;44.756;2024-03-02T07:12:20;103089.06;;;6.72;43.56
75668;BME280;64266;48.798;44.756;2024-03-02T07:17:23;103099.31;;;6.66;43.87
75668;BME280;64266;48.798;44.756;2024-03-02T07:22:27;103110.28;;;6.71;45.34
75668;BME280;64266;48.798;44.756;2024-03-02T07:27:31;103116.84;;;6.76;44.97
75668;BME280;64266;48.798;44.756;2024-03-02T07:32:34;103106.03;;;6.98;45.30
75668;BME280;64266;48.798;44.756;2024-03-02T07:37:37;103098.56;;;7.03;44.69
75668;BME280;64266;48.798;44.756;2024-03-02T07:42:41;103100.66;;;7.09;46.07
75668;BME280;64266;48.798;44.756;2024-03-02T07:47:43;103090.38;;;7.06;47.01
75668;BME280;64266;48.798;44.756;2024-03-02T07:52:47;103080.63;;;6.88;46.52
75668;BME280;64266;48.798;44.756;2024-03-02T07:57:50;103061.03;;;6.81;45.99
75668;BME280;64266;48.798;44.756;2024-03-02T08:02:54;103068.56;;;6.95;46.58
75668;BME280;64266;48.798;44.756;2024-03-02T08:07:57;103094.28;;;7.22;46.54
75668;BME280;64266;48.798;44.756;2024-03-02T08:13:00;103069.41;;;7.15;47.65
75668;BME280;64266;48.798;44.756;2024-03-02T08:18:04;103091.38;;;7.34;46.71
75668;BME280;64266;48.798;44.756;2024-03-02T08:23:09;103086.63;;;7.57;47.59
75668;BME280;64266;48.798;44.756;2024-03-02T08:28:12;103061.50;;;7.53;47.21
75668;BME280;64266;48.798;44.756;2024-03-02T08:33:16;103073.09;;;7.79;46.84
75668;BME280;64266;48.798;44.756;2024-03-02T08:38:20;103068.13;;;7.67;47.39
75668;BME280;64266;48.798;44.756;2024-03-02T08:43:23;103056.22;;;7.62;48.17
75668;BME280;64266;48.798;44.756;2024-03-02T08:48:27;103068.84;;;7.59;47.61
75668;BME280;64266;48.798;44.756;2024-03-02T08:53:31;103048.31;;;7.43;48.64
75668;BME280;64266;48.798;44.756;2024-03-02T08:58:34;103034.94;;;7.35;47.65
75668;BME280;64266;48.798;44.756;2024-03-02T09:03:37;103054.13;;;7.56;48.85
75668;BME280;64266;48.798;44.756;2024-03-02T09:08:41;103049.41;;;7.41;49.18
75668;BME280;64266;48.798;44.756;2024-03-02T09:13:44;103034.38;;;7.51;49.97
75668;BME280;64266;48.798;44.756;2024-03-02T09:18:47;103018.69;;;7.49;49.33
75668;BME280;64266;48.798;44.756;2024-03-02T09:23:51;103029.63;;;7.64;49.87
75668;BME280;64266;48.798;44.756;2024-03-02T09:28:54;102972.16;;;7.39;49.20
75668;BME280;64266;48.798;44.756;2024-03-02T09:33:57;102916.97;;;6.99;48.15
75668;BME280;64266;48.798;44.756;2024-03-02T09:38:59;103017.00;;;7.58;49.51
75668;BME280;64266;48.798;44.756;2024-03-02T09:44:04;102968.38;;;7.51;49.73
75668;BME280;64266;48.798;44.756;2024-03-02T09:49:08;102997.88;;;7.93;49.57
75668;BME280;64266;48.798;44.756;2024-03-02T09:54:11;103004.28;;;7.90;47.92
75668;BME280;64266;48.798;44.756;2024-03-02T09:59:24;102979.38;;;7.93;46.49
75668;BME280;64266;48.798;44.756;2024-03-02T10:04:31;102994.47;;;8.00;46.82
75668;BME280;64266;48.798;44.756;2024-03-02T10:09:35;102986.94;;;8.15;45.40
75668;BME280;64266;48.798;44.756;2024-03-02T10:14:38;102976.72;;;8.30;43.67
75668;BME280;64266;48.798;44.756;2024-03-02T10:19:42;102970.91;;;8.44;43.20
75668;BME280;64266;48.798;44.756;2024-03-02T10:24:46;102987.56;;;8.54;43.47
75668;BME280;64266;48.798;44.756;2024-03-02T10:29:52;102989.13;;;8.47;43.92
75668;BME280;64266;48.798;44.756;2024-03-02T10:34:56;102968.28;;;8.44;44.13
75668;BME280;64266;48.798;44.756;2024-03-02T10:40:04;102952.94;;;8.30;44.74
75668;BME280;64266;48.798;44.756;2024-03-02T10:45:12;102958.59;;;8.35;45.26
75668;BME280;64266;48.798;44.756;2024-03-02T10:50:18;102963.53;;;8.20;45.79
75668;BME280;64266;48.798;44.756;2024-03-02T10:55:21;102957.41;;;8.19;46.31
75668;BME280;64266;48.798;44.756;2024-03-02T11:00:33;102958.25;;;8.20;46.14
75668;BME280;64266;48.798;44.756;2024-03-02T11:05:39;102892.34;;;7.64;47.80
75668;BME280;64266;48.798;44.756;2024-03-02T11:21:24;102978.84;;;7.89;49.58
75668;BME280;64266;48.798;44.756;2024-03-02T11:26:28;102968.56;;;7.86;49.77
75668;BME280;64266;48.798;44.756;2024-03-02T11:31:59;102960.88;;;7.93;50.21
75668;BME280;64266;48.798;44.756;2024-03-02T11:37:03;102964.28;;;8.03;49.31
75668;BME280;64266;48.798;44.756;2024-03-02T11:42:07;102939.78;;;7.83;49.10
75668;BME280;64266;48.798;44.756;2024-03-02T11:47:14;102946.28;;;7.89;48.73
75668;BME280;64266;48.798;44.756;2024-03-02T11:52:18;102944.19;;;7.55;48.89
75668;BME280;64266;48.798;44.756;2024-03-02T11:57:22;102943.69;;;7.42;49.39
75668;BME280;64266;48.798;44.756;2024-03-02T12:02:31;102945.09;;;7.37;50.30
75668;BME280;64266;48.798;44.756;2024-03-02T12:07:34;102953.28;;;7.43;50.46
75668;BME280;64266;48.798;44.756;2024-03-02T12:12:38;102949.13;;;7.41;50.12
75668;BME280;64266;48.798;44.756;2024-03-02T12:17:41;102934.44;;;7.19;50.17
75668;BME280;64266;48.798;44.756;2024-03-02T12:22:44;102939.44;;;7.22;49.92
75668;BME280;64266;48.798;44.756;2024-03-02T12:27:54;102949.44;;;6.99;50.81
75668;BME280;64266;48.798;44.756;2024-03-02T12:32:58;102940.44;;;6.83;50.81
75668;BME280;64266;48.798;44.756;2024-03-02T12:38:01;102948.34;;;6.73;49.89
75668;BME280;64266;48.798;44.756;2024-03-02T12:43:06;102922.38;;;6.59;51.47
75668;BME280;64266;48.798;44.756;2024-03-02T12:48:09;102943.19;;;6.62;51.30
75668;BME280;64266;48.798;44.756;2024-03-02T12:53:16;102953.34;;;6.76;52.23
75668;BME280;64266;48.798;44.756;2024-03-02T12:58:20;102945.44;;;6.76;51.33
75668;BME280;64266;48.798;44.756;2024-03-02T13:03:26;102889.66;;;6.42;50.21
75668;BME280;64266;48.798;44.756;2024-03-02T13:08:29;102947.09;;;6.48;50.52
75668;BME280;64266;48.798;44.756;2024-03-02T13:13:33;102939.00;;;6.40;50.37
75668;BME280;64266;48.798;44.756;2024-03-02T13:18:38;102963.56;;;6.41;50.94
75668;BME280;64266;48.798;44.756;2024-03-02T13:23:42;102896.00;;;6.21;50.24
75668;BME280;64266;48.798;44.756;2024-03-02T13:28:45;102941.81;;;6.39;50.45
75668;BME280;64266;48.798;44.756;2024-03-02T13:33:48;102937.91;;;6.33;52.20
75668;BME280;64266;48.798;44.756;2024-03-02T13:38:52;102940.81;;;6.30;51.67
75668;BME280;64266;48.798;44.756;2024-03-02T13:43:55;102935.56;;;6.30;52.07
75668;BME280;64266;48.798;44.756;2024-03-02T13:49:02;102949.13;;;6.26;52.87
75668;BME280;64266;48.798;44.756;2024-03-02T13:54:06;102953.69;;;6.24;52.70
75668;BME280;64266;48.798;44.756;2024-03-02T13:59:10;102921.19;;;6.04;53.62
75668;BME280;64266;48.798;44.756;2024-03-02T14:04:13;102956.84;;;6.08;54.24
75668;BME280;64266;48.798;44.756;2024-03-02T14:09:17;102954.91;;;6.10;54.61
75668;BME280;64266;48.798;44.756;2024-03-02T14:14:26;102944.03;;;5.94;55.38
75668;BME280;64266;48.798;44.756;2024-03-02T14:19:29;102942.50;;;5.91;56.44
75668;BME280;64266;48.798;44.756;2024-03-02T14:24:33;102939.28;;;5.88;56.93
75668;BME280;64266;48.798;44.756;2024-03-02T14:29:36;102940.63;;;5.82;57.40
75668;BME280;64266;48.798;44.756;2024-03-02T14:34:42;102954.31;;;5.76;58.89
75668;BME280;64266;48.798;44.756;2024-03-02T14:39:45;102959.41;;;5.68;60.01
75668;BME280;64266;48.798;44.756;2024-03-02T14:44:49;102883.88;;;5.08;60.51
75668;BME280;64266;48.798;44.756;2024-03-02T14:49:52;102964.06;;;5.55;60.87
75668;BME280;64266;48.798;44.756;2024-03-02T14:54:55;102928.72;;;5.27;61.32
75668;BME280;64266;48.798;44.756;2024-03-02T14:59:58;102958.69;;;5.36;61.62
75668;BME280;64266;48.798;44.756;2024-03-02T15:05:01;102956.63;;;5.39;61.42
75668;BME280;64266;48.798;44.756;2024-03-02T15:10:06;102949.44;;;5.21;61.40
75668;BME280;64266;48.798;44.756;2024-03-02T15:15:09;102908.50;;;4.86;62.97
75668;BME280;64266;48.798;44.756;2024-03-02T15:20:14;102927.34;;;4.71;63.46
75668;BME280;64266;48.798;44.756;2024-03-02T15:25:17;102965.13;;;4.70;64.65
75668;BME280;64266;48.798;44.756;2024-03-02T15:30:21;102979.44;;;4.66;65.27
75668;BME280;64266;48.798;44.756;2024-03-02T15:35:24;102963.59;;;4.56;66.05
75668;BME280;64266;48.798;44.756;2024-03-02T15:40:28;102954.94;;;4.33;65.79
75668;BME280;64266;48.798;44.756;2024-03-02T15:45:31;102977.84;;;4.43;66.20
75668;BME280;64266;48.798;44.756;2024-03-02T15:50:36;102968.28;;;4.42;66.81
75668;BME280;64266;48.798;44.756;2024-03-02T15:55:40;102979.75;;;4.41;66.98
75668;BME280;64266;48.798;44.756;2024-03-02T16:00:43;102951.72;;;4.19;66.66
75668;BME280;64266;48.798;44.756;2024-03-02T16:05:46;102957.09;;;4.28;67.63
75668;BME280;64266;48.798;44.756;2024-03-02T16:10:50;102977.97;;;4.41;66.63
75668;BME280;64266;48.798;44.756;2024-03-02T16:15:54;102976.06;;;4.32;66.50
75668;BME280;64266;48.798;44.756;2024-03-02T16:20:57;102985.97;;;4.28;66.02
75668;BME280;64266;48.798;44.756;2024-03-02T16:25:59;102980.03;;;4.26;65.95
75668;BME280;64266;48.798;44.756;2024-03-02T16:31:03;102975.72;;;4.25;66.07
75668;BME280;64266;48.798;44.756;2024-03-02T16:36:08;102979.31;;;4.24;67.07
75668;BME280;64266;48.798;44.756;2024-03-02T16:41:11;102968.69;;;4.15;65.71
75668;BME280;64266;48.798;44.756;2024-03-02T16:46:16;102963.94;;;4.09;66.22
75668;BME280;64266;48.798;44.756;2024-03-02T16:51:20;102921.34;;;3.83;65.23
75668;BME280;64266;48.798;44.756;2024-03-02T16:56:23;102958.34;;;4.02;64.91
75668;BME280;64266;48.798;44.756;2024-03-02T17:01:26;102943.78;;;3.98;64.91
75668;BME280;64266;48.798;44.756;2024-03-02T17:06:30;102972.97;;;4.16;63.39
75668;BME280;64266;48.798;44.756;2024-03-02T17:11:36;102949.75;;;3.89;63.79
75668;BME280;64266;48.798;44.756;2024-03-02T17:16:39;102967.16;;;4.01;63.50
75668;BME280;64266;48.798;44.756;2024-03-02T17:21:42;102965.47;;;4.00;63.21
75668;BME280;64266;48.798;44.756;2024-03-02T17:26:45;102912.63;;;3.60;62.21
75668;BME280;64266;48.798;44.756;2024-03-02T17:31:49;102958.09;;;3.83;62.78
75668;BME280;64266;48.798;44.756;2024-03-02T17:36:53;102955.59;;;3.70;62.29
75668;BME280;64266;48.798;44.756;2024-03-02T17:41:56;102945.31;;;3.67;61.83
75668;BME280;64266;48.798;44.756;2024-03-02T17:47:00;102930.25;;;3.36;60.93
75668;BME280;64266;48.798;44.756;2024-03-02T17:52:03;102938.16;;;3.47;61.11
75668;BME280;64266;48.798;44.756;2024-03-02T17:57:06;102946.28;;;3.44;61.23
75668;BME280;64266;48.798;44.756;2024-03-02T18:02:09;102937.75;;;3.29;61.27
75668;BME280;64266;48.798;44.756;2024-03-02T18:07:13;102927.03;;;3.21;60.84
75668;BME280;64266;48.798;44.756;2024-03-02T18:12:16;102935.13;;;3.18;60.90
75668;BME280;64266;48.798;44.756;2024-03-02T18:17:19;102929.03;;;3.18;61.57
75668;BME280;64266;48.798;44.756;2024-03-02T18:22:22;102915.19;;;3.05;61.71
75668;BME280;64266;48.798;44.756;2024-03-02T18:27:26;102919.25;;;3.09;61.68
75668;BME280;64266;48.798;44.756;2024-03-02T18:32:29;102918.31;;;3.10;61.90
75668;BME280;64266;48.798;44.756;2024-03-02T18:37:32;102901.72;;;2.98;61.61
75668;BME280;64266;48.798;44.756;2024-03-02T18:42:35;102921.03;;;3.08;60.92
75668;BME280;64266;48.798;44.756;2024-03-02T18:47:38;102920.09;;;2.74;61.64
75668;BME280;64266;48.798;44.756;2024-03-02T18:52:44;102903.72;;;2.60;62.05
75668;BME280;64266;48.798;44.756;2024-03-02T18:57:47;102921.16;;;2.72;61.70
75668;BME280;64266;48.798;44.756;2024-03-02T19:02:50;102894.81;;;2.62;61.75
75668;BME280;64266;48.798;44.756;2024-03-02T19:07:54;102872.16;;;2.50;60.54
75668;BME280;64266;48.798;44.756;2024-03-02T19:12:57;102926.34;;;2.85;60.67
75668;BME280;64266;48.798;44.756;2024-03-02T19:18:00;102916.47;;;2.88;60.75
75668;BME280;64266;48.798;44.756;2024-03-02T19:23:03;102908.94;;;2.84;59.90
75668;BME280;64266;48.798;44.756;2024-03-02T19:28:06;102907.13;;;2.73;60.09
75668;BME280;64266;48.798;44.756;2024-03-02T19:33:12;102892.31;;;2.61;61.28
75668;BME280;64266;48.798;44.756;2024-03-02T19:38:17;102930.72;;;2.84;60.04
75668;BME280;64266;48.798;44.756;2024-03-02T19:43:21;102917.16;;;2.79;60.57
75668;BME280;64266;48.798;44.756;2024-03-02T19:48:24;102917.22;;;2.66;60.80
75668;BME280;64266;48.798;44.756;2024-03-02T19:53:27;102909.28;;;2.55;62.44
75668;BME280;64266;48.798;44.756;2024-03-02T19:58:29;102892.16;;;2.51;61.67
75668;BME280;64266;48.798;44.756;2024-03-02T20:03:34;102907.09;;;2.38;62.61
75668;BME280;64266;48.798;44.756;2024-03-02T20:08:38;102869.16;;;2.20;62.31
75668;BME280;64266;48.798;44.756;2024-03-02T20:13:41;102898.84;;;2.32;63.41
75668;BME280;64266;48.798;44.756;2024-03-02T20:18:45;102877.84;;;2.21;63.30
75668;BME280;64266;48.798;44.756;2024-03-02T20:23:48;102875.31;;;2.19;63.05
75668;BME280;64266;48.798;44.756;2024-03-02T20:28:52;102867.91;;;2.13;64.24
75668;BME280;64266;48.798;44.756;2024-03-02T20:33:55;102893.88;;;2.16;63.78
75668;BME280;64266;48.798;44.756;2024-03-02T20:38:58;102918.34;;;2.28;63.91
75668;BME280;64266;48.798;44.756;2024-03-02T20:44:02;102894.38;;;2.21;64.75
75668;BME280;64266;48.798;44.756;2024-03-02T20:49:09;102905.63;;;2.34;63.59
75668;BME280;64266;48.798;44.756;2024-03-02T20:54:13;102922.06;;;2.36;63.90
75668;BME280;64266;48.798;44.756;2024-03-02T20:59:16;102846.22;;;2.00;63.96
75668;BME280;64266;48.798;44.756;2024-03-02T21:04:21;102914.03;;;2.27;64.19
75668;BME280;64266;48.798;44.756;2024-03-02T21:09:26;102917.06;;;2.33;63.69
75668;BME280;64266;48.798;44.756;2024-03-02T21:14:30;102900.22;;;2.25;63.15
75668;BME280;64266;48.798;44.756;2024-03-02T21:19:35;102900.13;;;2.26;64.67
75668;BME280;64266;48.798;44.756;2024-03-02T21:24:38;102906.63;;;2.21;63.79
75668;BME280;64266;48.798;44.756;2024-03-02T21:29:44;102903.88;;;2.22;65.57
75668;BME280;64266;48.798;44.756;2024-03-02T21:34:48;102924.50;;;2.27;64.11
75668;BME280;64266;48.798;44.756;2024-03-02T21:39:51;102907.78;;;2.16;64.63
75668;BME280;64266;48.798;44.756;2024-03-02T21:44:54;102918.25;;;2.16;64.64
75668;BME280;64266;48.798;44.756;2024-03-02T21:49:58;102899.97;;;2.04;64.46
75668;BME280;64266;48.798;44.756;2024-03-02T21:55:01;102904.06;;;2.08;64.92
75668;BME280;64266;48.798;44.756;2024-03-02T22:00:05;102907.69;;;2.18;64.25
75668;BME280;64266;48.798;44.756;2024-03-02T22:05:14;102917.63;;;2.13;63.86
75668;BME280;64266;48.798;44.756;2024-03-02T22:10:18;102931.25;;;2.18;64.39
75668;BME280;64266;48.798;44.756;2024-03-02T22:15:21;102896.06;;;1.86;63.97
75668;BME280;64266;48.798;44.756;2024-03-02T22:20:24;102825.34;;;1.38;64.07
75668;BME280;64266;48.798;44.756;2024-03-02T22:25:28;102930.25;;;1.95;64.41
75668;BME280;64266;48.798;44.756;2024-03-02T22:30:31;102902.88;;;1.76;64.74
75668;BME280;64266;48.798;44.756;2024-03-02T22:35:34;102936.97;;;1.87;64.63
75668;BME280;64266;48.798;44.756;2024-03-02T22:40:38;102926.50;;;1.87;64.15
75668;BME280;64266;48.798;44.756;2024-03-02T22:45:41;102948.91;;;1.78;64.59
75668;BME280;64266;48.798;44.756;2024-03-02T22:50:44;102928.00;;;1.66;64.55
75668;BME280;64266;48.798;44.756;2024-03-02T22:55:47;102928.00;;;1.66;64.45
75668;BME280;64266;48.798;44.756;2024-03-02T23:00:50;102918.59;;;1.50;65.37
75668;BME280;64266;48.798;44.756;2024-03-02T23:06:00;102890.06;;;1.22;65.89
75668;BME280;64266;48.798;44.756;2024-03-02T23:11:04;102917.34;;;1.31;65.83
75668;BME280;64266;48.798;44.756;2024-03-02T23:16:08;102902.50;;;1.19;67.12
75668;BME280;64266;48.798;44.756;2024-03-02T23:21:12;102902.19;;;1.11;66.97
75668;BME280;64266;48.798;44.756;2024-03-02T23:26:15;102866.22;;;0.89;66.96
75668;BME280;64266;48.798;44.756;2024-03-02T23:31:19;102905.72;;;1.09;67.43
75668;BME280;64266;48.798;44.756;2024-03-02T23:36:22;102817.88;;;0.44;68.27
75668;BME280;64266;48.798;44.756;2024-03-02T23:41:26;102866.28;;;0.75;68.53
75668;BME280;64266;48.798;44.756;2024-03-02T23:46:29;102911.03;;;1.08;67.42
75668;BME280;64266;48.798;44.756;2024-03-02T23:51:32;102909.50;;;1.18;67.42
75668;BME280;64266;48.798;44.756;2024-03-02T23:56:35;102806.75;;;0.54;68.29
